sensor_id;sensor_type;location;lat;lon;timestamp;P1;durP1;ratioP1;P2;durP2;ratioP2
41705;SDS011;27385;51.096;17.190;2023-04-01T00:02:24;9.40;;;1.80;;
41705;SDS011;27385;51.096;17.190;2023-04-01T00:04:55;5.10;;;1.20;;
41705;SDS011;27385;51.096;17.190;2023-04-01T00:07:25;6.50;;;1.30;;
41705;SDS011;27385;51.096;17.190;2023-04-01T00:09:56;6.20;;;1.20;;
41705;SDS011;27385;51.096;17.190;2023-04-01T00:12:27;6.20;;;1.30;;
41705;SDS011;27385;51.096;17.190;2023-04-01T00:14:58;7.40;;;1.40;;
41705;SDS011;27385;51.096;17.190;2023-04-01T00:17:30;9.40;;;1.40;;
41705;SDS011;27385;51.096;17.190;2023-04-01T00:20:01;10.50;;;1.70;;
41705;SDS011;27385;51.096;17.190;2023-04-01T00:22:32;6.90;;;1.60;;
41705;SDS011;27385;51.096;17.190;2023-04-01T00:25:04;5.70;;;1.50;;
41705;SDS011;27385;51.096;17.190;2023-04-01T00:27:36;9.40;;;2.00;;
41705;SDS011;27385;51.096;17.190;2023-04-01T00:30:08;11.00;;;2.20;;
41705;SDS011;27385;51.096;17.190;2023-04-01T00:32:39;7.20;;;1.90;;
41705;SDS011;27385;51.096;17.190;2023-04-01T00:35:10;8.70;;;2.50;;
41705;SDS011;27385;51.096;17.190;2023-04-01T00:37:41;8.40;;;1.90;;
41705;SDS011;27385;51.096;17.190;2023-04-01T00:40:21;8.30;;;2.40;;
41705;SDS011;27385;51.096;17.190;2023-04-01T00:42:56;11.50;;;2.60;;
41705;SDS011;27385;51.096;17.190;2023-04-01T00:45:32;10.70;;;2.80;;
41705;SDS011;27385;51.096;17.190;2023-04-01T00:48:06;12.70;;;3.30;;
41705;SDS011;27385;51.096;17.190;2023-04-01T00:50:40;11.70;;;3.50;;
41705;SDS011;27385;51.096;17.190;2023-04-01T00:53:13;14.30;;;3.80;;
41705;SDS011;27385;51.096;17.190;2023-04-01T00:55:45;11.10;;;3.70;;
41705;SDS011;27385;51.096;17.190;2023-04-01T00:58:23;13.80;;;4.50;;
41705;SDS011;27385;51.096;17.190;2023-04-01T01:00:56;13.20;;;4.30;;
41705;SDS011;27385;51.096;17.190;2023-04-01T01:03:29;14.70;;;5.00;;
41705;SDS011;27385;51.096;17.190;2023-04-01T01:06:04;13.10;;;3.70;;
41705;SDS011;27385;51.096;17.190;2023-04-01T01:08:47;11.10;;;4.30;;
41705;SDS011;27385;51.096;17.190;2023-04-01T01:11:33;12.00;;;4.20;;
41705;SDS011;27385;51.096;17.190;2023-04-01T01:14:17;12.60;;;4.50;;
41705;SDS011;27385;51.096;17.190;2023-04-01T01:17:00;14.00;;;4.50;;
41705;SDS011;27385;51.096;17.190;2023-04-01T01:19:57;13.80;;;4.30;;
41705;SDS011;27385;51.096;17.190;2023-04-01T01:22:52;12.00;;;3.70;;
41705;SDS011;27385;51.096;17.190;2023-04-01T01:25:45;13.60;;;5.30;;
41705;SDS011;27385;51.096;17.190;2023-04-01T01:28:27;14.20;;;4.80;;
41705;SDS011;27385;51.096;17.190;2023-04-01T01:31:07;13.20;;;4.70;;
41705;SDS011;27385;51.096;17.190;2023-04-01T01:33:47;14.80;;;5.00;;
41705;SDS011;27385;51.096;17.190;2023-04-01T01:36:23;12.90;;;4.60;;
41705;SDS011;27385;51.096;17.190;2023-04-01T01:39:02;15.90;;;4.90;;
41705;SDS011;27385;51.096;17.190;2023-04-01T01:41:34;17.80;;;6.10;;
41705;SDS011;27385;51.096;17.190;2023-04-01T01:44:08;16.40;;;5.20;;
41705;SDS011;27385;51.096;17.190;2023-04-01T01:46:44;13.90;;;4.70;;
41705;SDS011;27385;51.096;17.190;2023-04-01T01:49:16;14.20;;;5.50;;
41705;SDS011;27385;51.096;17.190;2023-04-01T01:51:48;13.30;;;5.10;;
41705;SDS011;27385;51.096;17.190;2023-04-01T01:54:19;13.30;;;5.10;;
41705;SDS011;27385;51.096;17.190;2023-04-01T01:56:50;15.30;;;5.40;;
41705;SDS011;27385;51.096;17.190;2023-04-01T01:59:29;13.00;;;4.70;;
41705;SDS011;27385;51.096;17.190;2023-04-01T02:02:02;13.10;;;4.90;;
41705;SDS011;27385;51.096;17.190;2023-04-01T02:04:36;14.30;;;4.80;;
41705;SDS011;27385;51.096;17.190;2023-04-01T02:07:08;11.40;;;3.80;;
41705;SDS011;27385;51.096;17.190;2023-04-01T02:09:43;15.10;;;5.00;;
41705;SDS011;27385;51.096;17.190;2023-04-01T02:12:14;13.10;;;4.30;;
41705;SDS011;27385;51.096;17.190;2023-04-01T02:14:47;16.10;;;5.40;;
41705;SDS011;27385;51.096;17.190;2023-04-01T02:17:22;18.00;;;5.80;;
41705;SDS011;27385;51.096;17.190;2023-04-01T02:19:57;13.40;;;5.30;;
41705;SDS011;27385;51.096;17.190;2023-04-01T02:22:33;13.70;;;5.20;;
41705;SDS011;27385;51.096;17.190;2023-04-01T02:25:07;15.20;;;4.90;;
41705;SDS011;27385;51.096;17.190;2023-04-01T02:27:41;14.20;;;4.80;;
41705;SDS011;27385;51.096;17.190;2023-04-01T02:30:15;12.80;;;4.20;;
41705;SDS011;27385;51.096;17.190;2023-04-01T02:32:46;13.00;;;4.30;;
41705;SDS011;27385;51.096;17.190;2023-04-01T02:35:18;15.60;;;5.50;;
41705;SDS011;27385;51.096;17.190;2023-04-01T02:37:49;13.20;;;4.80;;
41705;SDS011;27385;51.096;17.190;2023-04-01T02:40:22;14.00;;;4.90;;
41705;SDS011;27385;51.096;17.190;2023-04-01T02:42:53;13.90;;;5.00;;
41705;SDS011;27385;51.096;17.190;2023-04-01T02:45:24;10.70;;;4.30;;
41705;SDS011;27385;51.096;17.190;2023-04-01T02:47:54;11.50;;;4.20;;
41705;SDS011;27385;51.096;17.190;2023-04-01T02:50:25;17.20;;;5.10;;
41705;SDS011;27385;51.096;17.190;2023-04-01T02:52:56;14.70;;;5.00;;
41705;SDS011;27385;51.096;17.190;2023-04-01T02:55:27;15.80;;;5.90;;
41705;SDS011;27385;51.096;17.190;2023-04-01T02:57:58;12.80;;;4.30;;
41705;SDS011;27385;51.096;17.190;2023-04-01T03:00:29;15.00;;;5.00;;
41705;SDS011;27385;51.096;17.190;2023-04-01T03:03:00;12.00;;;4.20;;
41705;SDS011;27385;51.096;17.190;2023-04-01T03:05:31;11.60;;;4.10;;
41705;SDS011;27385;51.096;17.190;2023-04-01T03:08:02;14.70;;;4.30;;
41705;SDS011;27385;51.096;17.190;2023-04-01T03:10:34;13.30;;;4.30;;
41705;SDS011;27385;51.096;17.190;2023-04-01T03:13:05;11.80;;;3.70;;
41705;SDS011;27385;51.096;17.190;2023-04-01T03:15:36;15.80;;;4.30;;
41705;SDS011;27385;51.096;17.190;2023-04-01T03:18:06;12.60;;;4.30;;
41705;SDS011;27385;51.096;17.190;2023-04-01T03:20:37;13.30;;;3.20;;
41705;SDS011;27385;51.096;17.190;2023-04-01T03:23:08;11.40;;;3.40;;
41705;SDS011;27385;51.096;17.190;2023-04-01T03:25:39;12.80;;;3.80;;
41705;SDS011;27385;51.096;17.190;2023-04-01T03:28:10;8.40;;;2.80;;
41705;SDS011;27385;51.096;17.190;2023-04-01T03:30:42;8.40;;;2.40;;
41705;SDS011;27385;51.096;17.190;2023-04-01T03:33:13;8.70;;;2.80;;
41705;SDS011;27385;51.096;17.190;2023-04-01T03:35:44;11.70;;;3.40;;
41705;SDS011;27385;51.096;17.190;2023-04-01T03:38:15;11.00;;;2.30;;
41705;SDS011;27385;51.096;17.190;2023-04-01T03:40:46;10.80;;;2.30;;
41705;SDS011;27385;51.096;17.190;2023-04-01T03:43:17;9.70;;;2.50;;
41705;SDS011;27385;51.096;17.190;2023-04-01T03:45:48;11.00;;;2.20;;
41705;SDS011;27385;51.096;17.190;2023-04-01T03:48:20;6.00;;;2.10;;
41705;SDS011;27385;51.096;17.190;2023-04-01T03:50:51;8.80;;;2.30;;
41705;SDS011;27385;51.096;17.190;2023-04-01T03:53:21;8.00;;;2.60;;
41705;SDS011;27385;51.096;17.190;2023-04-01T03:55:52;8.60;;;2.40;;
41705;SDS011;27385;51.096;17.190;2023-04-01T03:58:23;8.30;;;2.30;;
41705;SDS011;27385;51.096;17.190;2023-04-01T04:00:54;8.70;;;1.90;;
41705;SDS011;27385;51.096;17.190;2023-04-01T04:03:25;9.00;;;2.30;;
41705;SDS011;27385;51.096;17.190;2023-04-01T04:05:56;7.90;;;1.90;;
41705;SDS011;27385;51.096;17.190;2023-04-01T04:08:28;9.30;;;1.90;;
41705;SDS011;27385;51.096;17.190;2023-04-01T04:10:58;9.10;;;2.20;;
41705;SDS011;27385;51.096;17.190;2023-04-01T04:13:29;7.40;;;1.80;;
41705;SDS011;27385;51.096;17.190;2023-04-01T04:16:00;7.20;;;2.30;;
41705;SDS011;27385;51.096;17.190;2023-04-01T04:18:32;12.10;;;2.90;;
41705;SDS011;27385;51.096;17.190;2023-04-01T04:21:03;9.80;;;2.50;;
41705;SDS011;27385;51.096;17.190;2023-04-01T04:23:34;10.10;;;3.20;;
41705;SDS011;27385;51.096;17.190;2023-04-01T04:26:06;11.30;;;3.40;;
41705;SDS011;27385;51.096;17.190;2023-04-01T04:28:38;11.70;;;3.40;;
41705;SDS011;27385;51.096;17.190;2023-04-01T04:31:09;10.20;;;2.60;;
41705;SDS011;27385;51.096;17.190;2023-04-01T04:33:40;10.10;;;3.10;;
41705;SDS011;27385;51.096;17.190;2023-04-01T04:36:11;10.70;;;3.10;;
41705;SDS011;27385;51.096;17.190;2023-04-01T04:38:42;14.00;;;3.20;;
41705;SDS011;27385;51.096;17.190;2023-04-01T04:41:13;8.90;;;2.50;;
41705;SDS011;27385;51.096;17.190;2023-04-01T04:43:50;10.80;;;2.40;;
41705;SDS011;27385;51.096;17.190;2023-04-01T04:46:22;10.50;;;2.80;;
41705;SDS011;27385;51.096;17.190;2023-04-01T04:48:54;10.60;;;3.10;;
41705;SDS011;27385;51.096;17.190;2023-04-01T04:51:25;11.80;;;2.60;;
41705;SDS011;27385;51.096;17.190;2023-04-01T04:53:56;10.30;;;2.40;;
41705;SDS011;27385;51.096;17.190;2023-04-01T04:56:27;11.90;;;2.80;;
41705;SDS011;27385;51.096;17.190;2023-04-01T04:58:58;7.00;;;2.10;;
41705;SDS011;27385;51.096;17.190;2023-04-01T05:01:29;8.40;;;2.20;;
41705;SDS011;27385;51.096;17.190;2023-04-01T05:04:01;8.00;;;2.30;;
41705;SDS011;27385;51.096;17.190;2023-04-01T05:06:32;6.40;;;1.90;;
41705;SDS011;27385;51.096;17.190;2023-04-01T05:09:03;6.00;;;2.00;;
41705;SDS011;27385;51.096;17.190;2023-04-01T05:11:33;6.20;;;1.50;;
41705;SDS011;27385;51.096;17.190;2023-04-01T05:14:04;8.40;;;1.70;;
41705;SDS011;27385;51.096;17.190;2023-04-01T05:16:40;4.90;;;1.30;;
41705;SDS011;27385;51.096;17.190;2023-04-01T05:19:11;8.00;;;1.50;;
41705;SDS011;27385;51.096;17.190;2023-04-01T05:21:42;10.00;;;1.70;;
41705;SDS011;27385;51.096;17.190;2023-04-01T05:24:13;5.90;;;1.30;;
41705;SDS011;27385;51.096;17.190;2023-04-01T05:26:44;7.90;;;1.50;;
41705;SDS011;27385;51.096;17.190;2023-04-01T05:29:14;7.40;;;1.40;;
41705;SDS011;27385;51.096;17.190;2023-04-01T05:31:45;4.70;;;1.40;;
41705;SDS011;27385;51.096;17.190;2023-04-01T05:34:16;4.70;;;1.20;;
41705;SDS011;27385;51.096;17.190;2023-04-01T05:36:47;5.00;;;1.20;;
41705;SDS011;27385;51.096;17.190;2023-04-01T05:39:18;6.50;;;1.60;;
41705;SDS011;27385;51.096;17.190;2023-04-01T05:41:49;9.30;;;1.80;;
41705;SDS011;27385;51.096;17.190;2023-04-01T05:44:19;5.90;;;1.30;;
41705;SDS011;27385;51.096;17.190;2023-04-01T05:46:50;8.20;;;2.20;;
41705;SDS011;27385;51.096;17.190;2023-04-01T05:49:22;9.70;;;1.90;;
41705;SDS011;27385;51.096;17.190;2023-04-01T05:51:53;8.60;;;2.00;;
41705;SDS011;27385;51.096;17.190;2023-04-01T05:54:24;10.60;;;2.40;;
41705;SDS011;27385;51.096;17.190;2023-04-01T05:56:55;8.80;;;1.90;;
41705;SDS011;27385;51.096;17.190;2023-04-01T05:59:25;12.00;;;2.60;;
41705;SDS011;27385;51.096;17.190;2023-04-01T06:01:58;7.90;;;1.80;;
41705;SDS011;27385;51.096;17.190;2023-04-01T06:04:32;8.20;;;2.10;;
41705;SDS011;27385;51.096;17.190;2023-04-01T06:07:12;7.90;;;2.00;;
41705;SDS011;27385;51.096;17.190;2023-04-01T06:09:44;8.80;;;2.30;;
41705;SDS011;27385;51.096;17.190;2023-04-01T06:12:28;8.30;;;2.10;;
41705;SDS011;27385;51.096;17.190;2023-04-01T06:15:21;7.40;;;1.90;;
41705;SDS011;27385;51.096;17.190;2023-04-01T06:18:02;9.00;;;2.30;;
41705;SDS011;27385;51.096;17.190;2023-04-01T06:20:49;8.90;;;2.70;;
41705;SDS011;27385;51.096;17.190;2023-04-01T06:23:30;12.60;;;3.40;;
41705;SDS011;27385;51.096;17.190;2023-04-01T06:26:13;8.00;;;2.30;;
41705;SDS011;27385;51.096;17.190;2023-04-01T06:35:02;11.60;;;1.90;;
41705;SDS011;27385;51.096;17.190;2023-04-01T06:37:57;8.90;;;2.10;;
41705;SDS011;27385;51.096;17.190;2023-04-01T06:40:58;8.60;;;2.50;;
41705;SDS011;27385;51.096;17.190;2023-04-01T06:43:53;5.40;;;1.60;;
41705;SDS011;27385;51.096;17.190;2023-04-01T06:46:39;6.90;;;1.50;;
41705;SDS011;27385;51.096;17.190;2023-04-01T06:49:28;6.10;;;1.50;;
41705;SDS011;27385;51.096;17.190;2023-04-01T06:52:14;4.70;;;1.30;;
41705;SDS011;27385;51.096;17.190;2023-04-01T06:57:56;7.70;;;1.20;;
41705;SDS011;27385;51.096;17.190;2023-04-01T07:00:54;4.90;;;1.10;;
41705;SDS011;27385;51.096;17.190;2023-04-01T07:03:53;4.40;;;1.10;;
41705;SDS011;27385;51.096;17.190;2023-04-01T07:06:31;4.80;;;1.10;;
41705;SDS011;27385;51.096;17.190;2023-04-01T07:09:10;5.30;;;1.50;;
41705;SDS011;27385;51.096;17.190;2023-04-01T07:11:46;5.60;;;1.10;;
41705;SDS011;27385;51.096;17.190;2023-04-01T07:14:40;5.00;;;1.00;;
41705;SDS011;27385;51.096;17.190;2023-04-01T07:17:14;4.60;;;1.10;;
41705;SDS011;27385;51.096;17.190;2023-04-01T07:19:50;3.80;;;0.90;;
41705;SDS011;27385;51.096;17.190;2023-04-01T07:22:29;4.00;;;1.10;;
41705;SDS011;27385;51.096;17.190;2023-04-01T07:25:05;5.40;;;1.30;;
41705;SDS011;27385;51.096;17.190;2023-04-01T07:27:43;6.80;;;1.50;;
41705;SDS011;27385;51.096;17.190;2023-04-01T07:30:16;5.90;;;1.40;;
41705;SDS011;27385;51.096;17.190;2023-04-01T07:32:49;4.10;;;1.30;;
41705;SDS011;27385;51.096;17.190;2023-04-01T07:35:26;6.40;;;1.60;;
41705;SDS011;27385;51.096;17.190;2023-04-01T07:38:17;10.30;;;1.80;;
41705;SDS011;27385;51.096;17.190;2023-04-01T07:40:55;5.70;;;1.60;;
41705;SDS011;27385;51.096;17.190;2023-04-01T07:43:44;8.90;;;2.50;;
41705;SDS011;27385;51.096;17.190;2023-04-01T07:46:29;8.50;;;1.90;;
41705;SDS011;27385;51.096;17.190;2023-04-01T07:49:24;11.00;;;2.80;;
41705;SDS011;27385;51.096;17.190;2023-04-01T07:52:04;15.20;;;3.30;;
41705;SDS011;27385;51.096;17.190;2023-04-01T07:54:42;18.40;;;3.40;;
41705;SDS011;27385;51.096;17.190;2023-04-01T07:57:19;9.50;;;2.10;;
41705;SDS011;27385;51.096;17.190;2023-04-01T07:59:58;10.10;;;1.80;;
41705;SDS011;27385;51.096;17.190;2023-04-01T08:02:40;11.20;;;2.60;;
41705;SDS011;27385;51.096;17.190;2023-04-01T08:05:24;16.20;;;3.60;;
41705;SDS011;27385;51.096;17.190;2023-04-01T08:08:05;6.90;;;1.80;;
41705;SDS011;27385;51.096;17.190;2023-04-01T08:10:42;7.00;;;1.70;;
41705;SDS011;27385;51.096;17.190;2023-04-01T08:13:20;7.50;;;1.40;;
41705;SDS011;27385;51.096;17.190;2023-04-01T08:16:02;7.60;;;1.50;;
41705;SDS011;27385;51.096;17.190;2023-04-01T08:18:41;7.30;;;1.60;;
41705;SDS011;27385;51.096;17.190;2023-04-01T08:21:17;9.20;;;1.70;;
41705;SDS011;27385;51.096;17.190;2023-04-01T08:23:52;5.30;;;1.50;;
41705;SDS011;27385;51.096;17.190;2023-04-01T08:26:28;8.20;;;1.50;;
41705;SDS011;27385;51.096;17.190;2023-04-01T08:29:05;8.40;;;1.60;;
41705;SDS011;27385;51.096;17.190;2023-04-01T08:31:42;6.00;;;1.30;;
41705;SDS011;27385;51.096;17.190;2023-04-01T08:34:19;6.90;;;1.70;;
41705;SDS011;27385;51.096;17.190;2023-04-01T08:36:57;11.10;;;1.40;;
41705;SDS011;27385;51.096;17.190;2023-04-01T08:39:34;5.10;;;1.30;;
41705;SDS011;27385;51.096;17.190;2023-04-01T08:42:19;5.40;;;1.30;;
41705;SDS011;27385;51.096;17.190;2023-04-01T08:45:12;6.70;;;2.00;;
41705;SDS011;27385;51.096;17.190;2023-04-01T08:51:00;13.20;;;1.70;;
41705;SDS011;27385;51.096;17.190;2023-04-01T08:53:59;3.90;;;1.60;;
41705;SDS011;27385;51.096;17.190;2023-04-01T08:56:46;7.40;;;1.80;;
41705;SDS011;27385;51.096;17.190;2023-04-01T08:59:29;19.80;;;3.00;;
41705;SDS011;27385;51.096;17.190;2023-04-01T09:02:22;7.60;;;1.50;;
41705;SDS011;27385;51.096;17.190;2023-04-01T09:05:17;7.80;;;2.00;;
41705;SDS011;27385;51.096;17.190;2023-04-01T09:10:35;7.20;;;1.20;;
41705;SDS011;27385;51.096;17.190;2023-04-01T09:13:39;5.30;;;1.50;;
41705;SDS011;27385;51.096;17.190;2023-04-01T09:16:36;7.20;;;1.70;;
41705;SDS011;27385;51.096;17.190;2023-04-01T09:19:35;9.10;;;1.60;;
41705;SDS011;27385;51.096;17.190;2023-04-01T09:22:29;7.50;;;2.30;;
41705;SDS011;27385;51.096;17.190;2023-04-01T09:25:19;13.80;;;2.20;;
41705;SDS011;27385;51.096;17.190;2023-04-01T09:28:00;9.20;;;1.50;;
41705;SDS011;27385;51.096;17.190;2023-04-01T09:30:41;9.80;;;1.70;;
41705;SDS011;27385;51.096;17.190;2023-04-01T09:36:45;7.40;;;1.70;;
41705;SDS011;27385;51.096;17.190;2023-04-01T09:39:30;9.20;;;1.50;;
41705;SDS011;27385;51.096;17.190;2023-04-01T09:45:14;6.10;;;1.30;;
41705;SDS011;27385;51.096;17.190;2023-04-01T09:48:02;5.90;;;1.50;;
41705;SDS011;27385;51.096;17.190;2023-04-01T09:50:44;5.30;;;1.20;;
41705;SDS011;27385;51.096;17.190;2023-04-01T09:53:27;3.90;;;1.10;;
41705;SDS011;27385;51.096;17.190;2023-04-01T09:56:27;8.50;;;1.20;;
41705;SDS011;27385;51.096;17.190;2023-04-01T09:59:34;5.70;;;1.30;;
41705;SDS011;27385;51.096;17.190;2023-04-01T10:05:50;6.20;;;1.40;;
41705;SDS011;27385;51.096;17.190;2023-04-01T10:18:11;6.50;;;1.30;;
41705;SDS011;27385;51.096;17.190;2023-04-01T10:20:58;6.70;;;1.20;;
41705;SDS011;27385;51.096;17.190;2023-04-01T10:23:53;11.40;;;1.60;;
41705;SDS011;27385;51.096;17.190;2023-04-01T10:26:49;9.70;;;1.50;;
41705;SDS011;27385;51.096;17.190;2023-04-01T10:29:44;6.70;;;1.40;;
41705;SDS011;27385;51.096;17.190;2023-04-01T10:32:38;5.10;;;1.20;;
41705;SDS011;27385;51.096;17.190;2023-04-01T10:39:04;0.80;;;0.20;;
41705;SDS011;27385;51.096;17.190;2023-04-01T10:45:08;3.20;;;0.30;;
41705;SDS011;27385;51.096;17.190;2023-04-01T10:48:20;1.20;;;0.30;;
41705;SDS011;27385;51.096;17.190;2023-04-01T10:51:06;1.50;;;0.30;;
41705;SDS011;27385;51.096;17.190;2023-04-01T10:53:47;3.10;;;0.40;;
41705;SDS011;27385;51.096;17.190;2023-04-01T10:56:34;0.80;;;0.20;;
41705;SDS011;27385;51.096;17.190;2023-04-01T11:14:52;3.40;;;0.60;;
41705;SDS011;27385;51.096;17.190;2023-04-01T11:24:01;2.50;;;0.40;;
41705;SDS011;27385;51.096;17.190;2023-04-01T11:26:47;1.50;;;0.50;;
41705;SDS011;27385;51.096;17.190;2023-04-01T11:29:43;2.30;;;0.50;;
41705;SDS011;27385;51.096;17.190;2023-04-01T11:32:26;4.10;;;0.60;;
41705;SDS011;27385;51.096;17.190;2023-04-01T11:35:16;2.70;;;0.70;;
41705;SDS011;27385;51.096;17.190;2023-04-01T11:38:04;2.70;;;0.70;;
41705;SDS011;27385;51.096;17.190;2023-04-01T11:40:45;2.50;;;0.70;;
41705;SDS011;27385;51.096;17.190;2023-04-01T11:43:24;1.90;;;0.70;;
41705;SDS011;27385;51.096;17.190;2023-04-01T11:46:02;3.40;;;0.80;;
41705;SDS011;27385;51.096;17.190;2023-04-01T11:48:47;2.90;;;0.70;;
41705;SDS011;27385;51.096;17.190;2023-04-01T11:51:33;1.20;;;0.30;;
41705;SDS011;27385;51.096;17.190;2023-04-01T11:54:22;2.50;;;0.70;;
41705;SDS011;27385;51.096;17.190;2023-04-01T11:57:09;3.30;;;0.60;;
41705;SDS011;27385;51.096;17.190;2023-04-01T11:59:55;1.70;;;0.40;;
41705;SDS011;27385;51.096;17.190;2023-04-01T12:02:42;1.20;;;0.40;;
41705;SDS011;27385;51.096;17.190;2023-04-01T12:05:28;2.60;;;0.30;;
41705;SDS011;27385;51.096;17.190;2023-04-01T12:08:11;3.70;;;0.40;;
41705;SDS011;27385;51.096;17.190;2023-04-01T12:10:52;2.80;;;0.50;;
41705;SDS011;27385;51.096;17.190;2023-04-01T12:13:32;1.50;;;0.40;;
41705;SDS011;27385;51.096;17.190;2023-04-01T12:16:18;1.50;;;0.40;;
41705;SDS011;27385;51.096;17.190;2023-04-01T12:19:00;3.10;;;0.60;;
41705;SDS011;27385;51.096;17.190;2023-04-01T12:21:44;3.60;;;0.50;;
41705;SDS011;27385;51.096;17.190;2023-04-01T12:24:29;1.60;;;0.40;;
41705;SDS011;27385;51.096;17.190;2023-04-01T12:27:22;2.30;;;0.60;;
41705;SDS011;27385;51.096;17.190;2023-04-01T12:30:26;2.80;;;0.70;;
41705;SDS011;27385;51.096;17.190;2023-04-01T12:33:10;4.70;;;0.80;;
41705;SDS011;27385;51.096;17.190;2023-04-01T12:35:56;2.30;;;0.70;;
41705;SDS011;27385;51.096;17.190;2023-04-01T12:38:39;6.20;;;0.70;;
41705;SDS011;27385;51.096;17.190;2023-04-01T12:41:21;2.10;;;0.60;;
41705;SDS011;27385;51.096;17.190;2023-04-01T12:44:07;3.00;;;0.70;;
41705;SDS011;27385;51.096;17.190;2023-04-01T12:46:59;2.60;;;0.70;;
41705;SDS011;27385;51.096;17.190;2023-04-01T12:49:56;2.60;;;0.40;;
41705;SDS011;27385;51.096;17.190;2023-04-01T12:52:52;1.90;;;0.50;;
41705;SDS011;27385;51.096;17.190;2023-04-01T12:55:37;2.90;;;0.40;;
41705;SDS011;27385;51.096;17.190;2023-04-01T12:58:22;2.20;;;0.60;;
41705;SDS011;27385;51.096;17.190;2023-04-01T13:04:39;2.30;;;0.50;;
41705;SDS011;27385;51.096;17.190;2023-04-01T13:07:31;3.50;;;0.60;;
41705;SDS011;27385;51.096;17.190;2023-04-01T13:10:25;2.20;;;0.50;;
41705;SDS011;27385;51.096;17.190;2023-04-01T13:16:11;1.10;;;0.20;;
41705;SDS011;27385;51.096;17.190;2023-04-01T13:18:52;2.20;;;0.30;;
41705;SDS011;27385;51.096;17.190;2023-04-01T13:21:36;1.70;;;0.40;;
41705;SDS011;27385;51.096;17.190;2023-04-01T13:24:18;2.10;;;0.30;;
41705;SDS011;27385;51.096;17.190;2023-04-01T13:27:01;1.00;;;0.30;;
41705;SDS011;27385;51.096;17.190;2023-04-01T13:29:38;1.60;;;0.40;;
41705;SDS011;27385;51.096;17.190;2023-04-01T13:32:17;5.30;;;0.40;;
41705;SDS011;27385;51.096;17.190;2023-04-01T13:37:54;1.60;;;0.40;;
41705;SDS011;27385;51.096;17.190;2023-04-01T13:40:35;2.80;;;0.50;;
41705;SDS011;27385;51.096;17.190;2023-04-01T13:43:16;2.50;;;0.40;;
41705;SDS011;27385;51.096;17.190;2023-04-01T13:46:06;2.20;;;0.40;;
41705;SDS011;27385;51.096;17.190;2023-04-01T13:48:51;1.30;;;0.50;;
41705;SDS011;27385;51.096;17.190;2023-04-01T13:58:04;3.70;;;0.70;;
41705;SDS011;27385;51.096;17.190;2023-04-01T14:01:02;4.60;;;0.80;;
41705;SDS011;27385;51.096;17.190;2023-04-01T14:03:44;4.40;;;0.80;;
41705;SDS011;27385;51.096;17.190;2023-04-01T14:06:33;5.60;;;1.10;;
41705;SDS011;27385;51.096;17.190;2023-04-01T14:09:24;7.10;;;1.10;;
41705;SDS011;27385;51.096;17.190;2023-04-01T14:12:04;3.40;;;0.70;;
41705;SDS011;27385;51.096;17.190;2023-04-01T14:14:45;4.20;;;1.10;;
41705;SDS011;27385;51.096;17.190;2023-04-01T14:17:33;4.80;;;0.90;;
41705;SDS011;27385;51.096;17.190;2023-04-01T14:23:13;6.90;;;1.10;;
41705;SDS011;27385;51.096;17.190;2023-04-01T14:26:19;5.30;;;0.90;;
41705;SDS011;27385;51.096;17.190;2023-04-01T14:29:04;3.20;;;0.70;;
41705;SDS011;27385;51.096;17.190;2023-04-01T14:31:50;3.90;;;0.70;;
41705;SDS011;27385;51.096;17.190;2023-04-01T14:34:35;4.40;;;0.90;;
41705;SDS011;27385;51.096;17.190;2023-04-01T14:37:18;3.20;;;0.60;;
41705;SDS011;27385;51.096;17.190;2023-04-01T14:42:58;2.90;;;0.60;;
41705;SDS011;27385;51.096;17.190;2023-04-01T14:45:47;3.80;;;0.60;;
41705;SDS011;27385;51.096;17.190;2023-04-01T14:48:51;5.20;;;0.60;;
41705;SDS011;27385;51.096;17.190;2023-04-01T14:51:30;2.50;;;0.70;;
41705;SDS011;27385;51.096;17.190;2023-04-01T14:54:06;3.20;;;0.80;;
41705;SDS011;27385;51.096;17.190;2023-04-01T14:56:50;5.60;;;0.70;;
41705;SDS011;27385;51.096;17.190;2023-04-01T14:59:34;5.50;;;0.80;;
41705;SDS011;27385;51.096;17.190;2023-04-01T15:02:18;3.20;;;1.00;;
41705;SDS011;27385;51.096;17.190;2023-04-01T15:05:08;3.10;;;0.60;;
41705;SDS011;27385;51.096;17.190;2023-04-01T15:07:51;2.20;;;0.60;;
41705;SDS011;27385;51.096;17.190;2023-04-01T15:10:44;3.60;;;0.80;;
41705;SDS011;27385;51.096;17.190;2023-04-01T15:13:34;2.50;;;0.60;;
41705;SDS011;27385;51.096;17.190;2023-04-01T15:16:20;4.60;;;0.80;;
41705;SDS011;27385;51.096;17.190;2023-04-01T15:19:03;3.20;;;0.80;;
41705;SDS011;27385;51.096;17.190;2023-04-01T15:21:50;4.90;;;1.20;;
41705;SDS011;27385;51.096;17.190;2023-04-01T15:24:29;8.80;;;2.00;;
41705;SDS011;27385;51.096;17.190;2023-04-01T15:27:22;7.00;;;2.10;;
41705;SDS011;27385;51.096;17.190;2023-04-01T15:30:14;10.90;;;3.70;;
41705;SDS011;27385;51.096;17.190;2023-04-01T15:32:58;9.90;;;3.10;;
41705;SDS011;27385;51.096;17.190;2023-04-01T15:35:43;20.10;;;6.50;;
41705;SDS011;27385;51.096;17.190;2023-04-01T15:41:02;23.60;;;8.80;;
41705;SDS011;27385;51.096;17.190;2023-04-01T15:43:41;28.50;;;8.30;;
41705;SDS011;27385;51.096;17.190;2023-04-01T15:46:19;30.70;;;10.40;;
41705;SDS011;27385;51.096;17.190;2023-04-01T15:49:07;34.70;;;12.10;;
41705;SDS011;27385;51.096;17.190;2023-04-01T15:51:51;36.80;;;11.50;;
41705;SDS011;27385;51.096;17.190;2023-04-01T15:57:40;14.70;;;4.40;;
41705;SDS011;27385;51.096;17.190;2023-04-01T16:00:22;17.40;;;5.90;;
41705;SDS011;27385;51.096;17.190;2023-04-01T16:03:07;29.00;;;7.90;;
41705;SDS011;27385;51.096;17.190;2023-04-01T16:05:58;15.40;;;5.90;;
41705;SDS011;27385;51.096;17.190;2023-04-01T16:08:56;17.10;;;5.60;;
41705;SDS011;27385;51.096;17.190;2023-04-01T16:11:41;14.90;;;5.40;;
41705;SDS011;27385;51.096;17.190;2023-04-01T16:14:28;16.50;;;5.20;;
41705;SDS011;27385;51.096;17.190;2023-04-01T16:17:15;14.80;;;5.20;;
41705;SDS011;27385;51.096;17.190;2023-04-01T16:19:57;17.50;;;5.40;;
41705;SDS011;27385;51.096;17.190;2023-04-01T16:22:37;19.10;;;7.30;;
41705;SDS011;27385;51.096;17.190;2023-04-01T16:25:19;20.80;;;7.90;;
41705;SDS011;27385;51.096;17.190;2023-04-01T16:27:58;25.10;;;11.00;;
41705;SDS011;27385;51.096;17.190;2023-04-01T16:30:50;20.60;;;9.00;;
41705;SDS011;27385;51.096;17.190;2023-04-01T16:33:31;17.80;;;6.80;;
41705;SDS011;27385;51.096;17.190;2023-04-01T16:36:11;13.70;;;5.30;;
41705;SDS011;27385;51.096;17.190;2023-04-01T16:38:52;14.30;;;4.50;;
41705;SDS011;27385;51.096;17.190;2023-04-01T16:41:38;15.10;;;5.10;;
41705;SDS011;27385;51.096;17.190;2023-04-01T16:44:18;14.90;;;4.90;;
41705;SDS011;27385;51.096;17.190;2023-04-01T16:46:51;12.60;;;4.60;;
41705;SDS011;27385;51.096;17.190;2023-04-01T16:49:36;12.50;;;4.50;;
41705;SDS011;27385;51.096;17.190;2023-04-01T16:52:14;17.60;;;5.30;;
41705;SDS011;27385;51.096;17.190;2023-04-01T16:54:59;16.60;;;6.40;;
41705;SDS011;27385;51.096;17.190;2023-04-01T16:57:45;20.90;;;8.30;;
41705;SDS011;27385;51.096;17.190;2023-04-01T17:00:22;22.00;;;10.20;;
41705;SDS011;27385;51.096;17.190;2023-04-01T17:02:58;27.50;;;15.30;;
41705;SDS011;27385;51.096;17.190;2023-04-01T17:05:57;37.00;;;17.30;;
41705;SDS011;27385;51.096;17.190;2023-04-01T17:08:40;33.60;;;15.40;;
41705;SDS011;27385;51.096;17.190;2023-04-01T17:11:37;31.40;;;13.50;;
41705;SDS011;27385;51.096;17.190;2023-04-01T17:14:16;22.50;;;11.10;;
41705;SDS011;27385;51.096;17.190;2023-04-01T17:16:56;24.60;;;10.20;;